createdAt,value
2023-09-29T00:02:15.039Z,83.34
2023-09-29T00:07:17.482Z,83.51
2023-09-29T00:12:20.209Z,83.62
2023-09-29T00:17:22.126Z,83.58
2023-09-29T00:22:24.085Z,83.78
2023-09-29T00:27:26.164Z,83.85
2023-09-29T00:32:28.125Z,83.95
2023-09-29T00:37:30.520Z,83.95
2023-09-29T00:42:33.204Z,83.83
2023-09-29T00:47:37.525Z,83.88
2023-09-29T00:52:41.886Z,83.92
2023-09-29T00:57:49.275Z,83.89
2023-09-29T01:02:51.545Z,84.09
2023-09-29T01:07:53.833Z,83.98
2023-09-29T01:12:55.785Z,84.10
2023-09-29T01:17:57.851Z,84.42
2023-09-29T01:23:02.396Z,84.44
2023-09-29T01:28:06.656Z,84.49
2023-09-29T01:33:09.615Z,84.57
2023-09-29T01:38:11.548Z,84.76
2023-09-29T01:43:13.403Z,84.81
2023-09-29T01:48:15.393Z,84.68
2023-09-29T01:53:18.049Z,84.77
2023-09-29T01:58:21.456Z,84.67
2023-09-29T02:03:23.718Z,84.73
2023-09-29T02:08:27.038Z,84.81
2023-09-29T02:13:28.949Z,84.84
2023-09-29T02:18:31.102Z,84.96
2023-09-29T02:23:34.971Z,85.09
2023-09-29T02:28:37.534Z,85.22
2023-09-29T02:33:41.975Z,85.31
2023-09-29T02:38:43.901Z,85.33
2023-09-29T02:43:45.813Z,85.14
2023-09-29T02:48:48.273Z,85.19
2023-09-29T02:53:51.606Z,85.31
2023-09-29T02:58:56.003Z,85.28
2023-09-29T03:04:00.239Z,85.13
2023-09-29T03:09:03.021Z,85.08
2023-09-29T03:14:05.627Z,85.17
2023-09-29T03:19:09.610Z,85.22
2023-09-29T03:24:11.546Z,85.30
2023-09-29T03:29:13.455Z,85.47
2023-09-29T03:34:15.754Z,85.39
2023-09-29T03:39:19.669Z,85.48
2023-09-29T03:44:22.575Z,85.53
2023-09-29T03:49:24.677Z,85.67
2023-09-29T03:54:27.038Z,85.69
2023-09-29T03:59:29.036Z,85.71
2023-09-29T04:04:32.172Z,85.76
2023-09-29T04:09:34.439Z,85.66
2023-09-29T04:14:36.409Z,85.66
2023-09-29T04:19:39.664Z,85.79
2023-09-29T04:24:41.571Z,85.85
2023-09-29T04:29:43.505Z,85.88
2023-09-29T04:34:46.447Z,85.77
2023-09-29T04:39:48.428Z,85.98
2023-09-29T04:44:50.323Z,85.94
2023-09-29T04:49:52.250Z,86.08
2023-09-29T04:54:54.592Z,86.07
2023-09-29T04:59:56.616Z,86.23
2023-09-29T05:04:58.501Z,86.26
2023-09-29T05:10:00.639Z,86.47
2023-09-29T05:15:03.282Z,86.71
2023-09-29T05:20:06.626Z,86.75
2023-09-29T05:25:09.745Z,86.91
2023-09-29T05:30:13.607Z,86.91
2023-09-29T05:35:15.560Z,86.89
2023-09-29T05:40:17.690Z,86.90
2023-09-29T05:45:21.242Z,87.05
2023-09-29T05:50:23.150Z,86.92
2023-09-29T05:55:25.320Z,86.92
2023-09-29T06:00:27.731Z,86.95
2023-09-29T06:05:31.037Z,86.75
2023-09-29T06:10:33.176Z,86.88
2023-09-29T06:15:35.040Z,86.60
2023-09-29T06:20:36.927Z,86.60
2023-09-29T06:25:38.901Z,86.60
2023-09-29T06:30:40.907Z,86.39
2023-09-29T06:35:43.339Z,86.10
2023-09-29T06:40:45.395Z,86.06
2023-09-29T06:50:52.455Z,85.56
2023-09-29T06:55:55.495Z,85.12
2023-09-29T07:01:02.074Z,84.60
2023-09-29T07:06:04.674Z,84.08
2023-09-29T07:11:06.736Z,83.72
2023-09-29T07:16:09.110Z,82.80
2023-09-29T07:21:11.009Z,82.32
2023-09-29T07:26:13.373Z,81.93
2023-09-29T07:31:15.330Z,81.46
2023-09-29T07:36:17.523Z,81.24
2023-09-29T07:41:19.512Z,80.94
2023-09-29T07:46:21.587Z,80.57
2023-09-29T07:51:26.198Z,80.06
2023-09-29T07:56:28.221Z,79.24
2023-09-29T08:01:30.490Z,79.11
2023-09-29T08:06:32.306Z,78.77
2023-09-29T08:11:34.668Z,78.37
2023-09-29T08:16:37.489Z,77.55
2023-09-29T08:21:40.384Z,76.78
2023-09-29T08:26:42.879Z,76.14
2023-09-29T08:31:45.150Z,75.77
2023-09-29T08:36:47.255Z,75.15
2023-09-29T08:41:57.405Z,74.57
2023-09-29T08:47:02.499Z,74.19
2023-09-29T08:52:05.685Z,73.78
2023-09-29T08:57:08.976Z,73.41
2023-09-29T09:02:11.257Z,72.79
2023-09-29T09:07:14.247Z,72.33
2023-09-29T09:12:18.409Z,71.57
2023-09-29T09:17:20.574Z,71.11
2023-09-29T09:22:38.708Z,70.75
2023-09-29T09:27:42.729Z,69.68
2023-09-29T09:32:44.949Z,69.31
2023-09-29T09:37:52.578Z,68.65
2023-09-29T09:42:55.320Z,68.17
2023-09-29T09:48:01.036Z,67.63
2023-09-29T09:53:09.213Z,65.79
2023-09-29T09:58:14.644Z,65.10
2023-09-29T10:03:18.242Z,64.68
2023-09-29T10:08:32.439Z,63.37
2023-09-29T10:13:39.371Z,63.06
2023-09-29T10:18:42.039Z,61.46
2023-09-29T10:23:51.867Z,61.63
2023-09-29T10:29:02.299Z,60.88
2023-09-29T10:34:04.470Z,60.11
2023-09-29T10:39:06.491Z,60.00
2023-09-29T10:44:08.652Z,59.67
2023-09-29T10:49:11.323Z,57.77
2023-09-29T10:54:13.582Z,58.09
2023-09-29T10:59:15.444Z,56.89
2023-09-29T11:04:17.589Z,56.68
2023-09-29T11:09:29.829Z,54.99
2023-09-29T11:14:39.830Z,54.81
2023-09-29T11:19:55.781Z,53.88
2023-09-29T11:24:58.326Z,53.98
2023-09-29T11:30:02.332Z,53.83
2023-09-29T11:35:04.410Z,52.60
2023-09-29T11:40:12.803Z,53.54
2023-09-29T11:45:14.945Z,53.37
2023-09-29T11:50:16.926Z,52.93
2023-09-29T11:55:18.890Z,53.23
2023-09-29T12:00:20.752Z,53.07
2023-09-29T12:05:22.805Z,53.11
2023-09-29T12:10:24.721Z,52.33
2023-09-29T12:15:27.188Z,51.96
2023-09-29T12:20:29.821Z,52.45
2023-09-29T12:25:32.510Z,52.12
2023-09-29T12:30:34.737Z,52.08
2023-09-29T12:35:36.629Z,51.73
2023-09-29T12:40:38.572Z,52.24
2023-09-29T12:45:40.391Z,52.31
2023-09-29T12:50:42.636Z,51.87
2023-09-29T12:55:44.677Z,51.83
2023-09-29T13:00:46.740Z,52.10
2023-09-29T13:05:49.162Z,51.45
2023-09-29T13:10:51.382Z,51.95
2023-09-29T13:15:53.846Z,51.83
2023-09-29T13:20:56.479Z,51.52
2023-09-29T13:25:58.565Z,50.60
2023-09-29T13:31:02.786Z,51.06
2023-09-29T13:36:05.172Z,51.01
2023-09-29T13:41:07.337Z,50.57
2023-09-29T13:46:09.689Z,50.34
2023-09-29T13:51:12.036Z,49.97
2023-09-29T13:56:14.793Z,49.65
2023-09-29T14:01:22.915Z,49.98
2023-09-29T14:06:25.136Z,49.28
2023-09-29T14:11:27.451Z,49.79
2023-09-29T14:16:30.124Z,49.40
2023-09-29T14:21:32.119Z,49.25
2023-09-29T14:26:34.659Z,49.30
2023-09-29T14:31:36.656Z,49.16
2023-09-29T14:36:38.498Z,50.15
2023-09-29T14:41:40.391Z,50.51
2023-09-29T14:46:42.821Z,50.43
2023-09-29T14:51:44.639Z,50.07
2023-09-29T14:56:46.469Z,50.34
2023-09-29T15:01:48.936Z,50.48
2023-09-29T15:06:50.878Z,50.89
2023-09-29T15:11:52.869Z,51.49
2023-09-29T15:16:54.838Z,51.82
2023-09-29T15:21:57.448Z,52.17
2023-09-29T15:27:05.133Z,52.49
2023-09-29T15:32:20.707Z,52.75
2023-09-29T15:37:22.650Z,53.00
2023-09-29T15:42:25.351Z,53.35
2023-09-29T15:47:27.405Z,53.72
2023-09-29T15:52:29.378Z,54.12
2023-09-29T15:57:31.542Z,54.47
2023-09-29T16:02:33.400Z,54.90
2023-09-29T16:07:35.895Z,55.33
2023-09-29T16:12:37.747Z,55.58
2023-09-29T16:17:40.114Z,55.83
2023-09-29T16:22:41.969Z,55.98
2023-09-29T16:27:43.890Z,56.40
2023-09-29T16:32:45.855Z,56.68
2023-09-29T16:37:47.756Z,57.01
2023-09-29T16:42:49.551Z,57.36
2023-09-29T16:47:52.019Z,57.75
2023-09-29T16:52:53.896Z,58.18
2023-09-29T16:57:56.047Z,58.59
2023-09-29T17:02:58.087Z,59.04
2023-09-29T17:08:01.733Z,59.54
2023-09-29T17:13:04.784Z,59.97
2023-09-29T17:18:07.028Z,60.23
2023-09-29T17:23:10.028Z,60.55
2023-09-29T17:28:14.570Z,61.06
2023-09-29T17:33:17.711Z,61.51
2023-09-29T17:38:19.765Z,61.68
2023-09-29T17:43:21.691Z,62.10
2023-09-29T17:48:40.884Z,62.25
2023-09-29T17:53:46.370Z,62.41
2023-09-29T17:58:48.764Z,62.56
2023-09-29T18:03:50.724Z,62.82
2023-09-29T18:08:53.043Z,63.21
2023-09-29T18:13:58.116Z,63.44
2023-09-29T18:19:01.804Z,63.83
2023-09-29T18:24:06.817Z,63.88
2023-09-29T18:29:10.292Z,64.28
2023-09-29T18:34:12.992Z,64.55
2023-09-29T18:39:15.839Z,64.76
2023-09-29T18:44:18.083Z,64.84
2023-09-29T18:49:20.099Z,65.18
2023-09-29T18:54:24.668Z,65.32
2023-09-29T18:59:30.352Z,65.33
2023-09-29T19:04:35.595Z,65.77
2023-09-29T19:09:39.316Z,65.94
2023-09-29T19:14:41.409Z,65.96
2023-09-29T19:19:43.426Z,65.86
2023-09-29T19:24:46.503Z,66.03
2023-09-29T19:29:50.635Z,66.03
2023-09-29T19:34:53.016Z,66.28
2023-09-29T19:39:54.879Z,66.48
2023-09-29T19:44:57.419Z,66.58
2023-09-29T19:50:01.205Z,66.79
2023-09-29T19:55:04.559Z,66.93
2023-09-29T20:00:07.116Z,67.18
2023-09-29T20:05:17.850Z,67.30
2023-09-29T20:10:20.154Z,67.47
2023-09-29T20:15:22.002Z,68.00
2023-09-29T20:20:23.949Z,68.02
2023-09-29T20:25:26.247Z,68.22
2023-09-29T20:30:28.507Z,68.26
2023-09-29T20:35:31.562Z,68.49
2023-09-29T20:40:33.450Z,68.84
2023-09-29T20:45:35.942Z,68.92
2023-09-29T20:50:39.112Z,69.19
2023-09-29T20:55:41.048Z,69.71
2023-09-29T21:00:43.100Z,70.02
2023-09-29T21:05:45.098Z,70.03
2023-09-29T21:11:01.631Z,70.32
2023-09-29T21:16:07.586Z,70.43
2023-09-29T21:21:09.567Z,70.62
2023-09-29T21:26:15.874Z,70.82
2023-09-29T21:31:22.663Z,71.29
2023-09-29T21:36:24.780Z,71.63
2023-09-29T21:41:26.602Z,71.66
2023-09-29T21:46:34.447Z,71.78
2023-09-29T21:51:40.391Z,72.22
2023-09-29T21:56:42.620Z,72.48
2023-09-29T22:01:44.672Z,72.82
2023-09-29T22:06:46.544Z,72.66
2023-09-29T22:11:48.607Z,72.94
2023-09-29T22:16:50.527Z,73.25
2023-09-29T22:21:56.132Z,73.37
2023-09-29T22:26:58.070Z,73.59
2023-09-29T22:32:00.702Z,73.81
2023-09-29T22:37:02.617Z,74.02
2023-09-29T22:42:04.508Z,74.04
2023-09-29T22:47:06.756Z,74.41
2023-09-29T22:52:08.642Z,74.17
2023-09-29T22:57:10.550Z,74.38
2023-09-29T23:02:12.749Z,74.17
2023-09-29T23:07:14.712Z,74.37
2023-09-29T23:12:19.647Z,74.53
2023-09-29T23:17:21.724Z,74.33
2023-09-29T23:22:23.725Z,74.35
2023-09-29T23:27:25.683Z,74.29
2023-09-29T23:32:29.098Z,74.43
2023-09-29T23:37:31.411Z,74.07
2023-09-29T23:42:33.773Z,74.08
2023-09-29T23:47:36.347Z,74.25
2023-09-29T23:52:38.907Z,74.01
2023-09-29T23:57:41.160Z,73.92
